Time;durP1;ratioP1;P1;durP2;ratioP2;P2;SDS_P1;SDS_P2;PMS_P1;PMS_P2;Temp;Humidity;BMP_temperature;BMP_pressure;BME280_temperature;BME280_humidity;BME280_pressure;Samples;Min_cycle;Max_cycle;Signal;HPM_P1;HPM_P2
2022/09/21 00:00:52;;;;;;;0.90;0.60;;;18.80;78.10;;;;;;6159874;23;20012;-82
2022/09/21 00:03:17;;;;;;;0.60;0.50;;;18.70;77.50;;;;;;6157900;23;20009;-81
2022/09/21 00:05:43;;;;;;;1.58;0.43;;;18.60;77.80;;;;;;6183986;23;20387;-80
2022/09/21 00:08:11;;;;;;;2.38;0.52;;;18.60;76.90;;;;;;6184830;23;20076;-81
2022/09/21 00:10:37;;;;;;;1.00;0.40;;;18.50;76.40;;;;;;6182373;23;20434;-81
2022/09/21 00:13:03;;;;;;;0.50;0.30;;;18.50;76.70;;;;;;6184326;23;20021;-81
2022/09/21 00:15:30;;;;;;;0.68;0.47;;;18.40;76.60;;;;;;6183604;23;20001;-81
2022/09/21 00:17:57;;;;;;;1.65;0.55;;;18.40;75.60;;;;;;6184034;23;20009;-80
2022/09/21 00:20:24;;;;;;;0.73;0.30;;;18.50;75.80;;;;;;6181613;23;20008;-80
2022/09/21 00:22:51;;;;;;;0.80;0.47;;;18.50;75.90;;;;;;6183769;23;20717;-80
2022/09/21 00:25:18;;;;;;;0.60;0.25;;;18.50;75.50;;;;;;6182044;23;20389;-80
2022/09/21 00:27:46;;;;;;;1.52;0.55;;;18.50;74.10;;;;;;6183793;23;19997;-80
2022/09/21 00:30:12;;;;;;;1.67;0.40;;;18.30;74.20;;;;;;6183577;23;20001;-80
2022/09/21 00:32:38;;;;;;;0.70;0.40;;;18.40;75.70;;;;;;6182914;23;20442;-78
2022/09/21 00:35:08;;;;;;;0.52;0.25;;;18.30;75.40;;;;;;6183694;23;20009;-78
2022/09/21 00:37:37;;;;;;;2.55;0.57;;;18.30;74.50;;;;;;6183226;23;20432;-77
2022/09/21 00:40:04;;;;;;;1.10;0.35;;;18.30;74.30;;;;;;6183742;23;20084;-77
2022/09/21 00:42:32;;;;;;;2.05;0.40;;;18.10;73.20;;;;;;6183602;23;20001;-77
2022/09/21 00:44:58;;;;;;;0.55;0.20;;;18.20;74.00;;;;;;6183146;23;20011;-81
2022/09/21 00:47:33;;;;;;;0.30;0.30;;;18.20;73.90;;;;;;6181710;23;20483;-81
2022/09/21 00:50:02;;;;;;;1.42;0.30;;;18.20;73.60;;;;;;6156328;23;20036;-81
2022/09/21 00:52:31;;;;;;;0.47;0.20;;;18.30;74.00;;;;;;6182145;23;20051;-80
2022/09/21 00:55:02;;;;;;;0.63;0.20;;;18.30;74.60;;;;;;6183670;23;20070;-81
2022/09/21 00:57:30;;;;;;;0.85;0.30;;;18.30;74.40;;;;;;6183538;23;20004;-81
2022/09/21 01:00:00;;;;;;;0.55;0.32;;;18.30;75.90;;;;;;6157368;23;20013;-81
2022/09/21 01:02:27;;;;;;;1.65;0.20;;;18.40;75.50;;;;;;6181319;23;20030;-81
2022/09/21 01:04:54;;;;;;;0.22;0.22;;;18.40;75.30;;;;;;6183206;23;20011;-77
2022/09/21 01:07:28;;;;;;;0.28;0.20;;;18.40;75.70;;;;;;6181193;23;20032;-77
2022/09/21 01:09:57;;;;;;;0.38;0.22;;;18.50;76.10;;;;;;6182965;23;20005;-77
2022/09/21 01:12:40;;;;;;;0.93;0.23;;;18.50;77.10;;;;;;6183395;23;20036;-77
2022/09/21 01:15:21;;;;;;;0.73;0.30;;;18.50;76.80;;;;;;6182412;23;20155;-80
2022/09/21 01:18:18;;;;;;;0.45;0.20;;;18.50;77.40;;;;;;6181070;23;20494;-79
2022/09/21 01:21:22;;;;;;;1.27;0.35;;;18.50;77.60;;;;;;6181078;23;20387;-79
2022/09/21 01:24:06;;;;;;;0.20;0.20;;;18.40;77.40;;;;;;6181434;23;20013;-78
2022/09/21 01:26:49;;;;;;;0.47;0.20;;;18.40;78.30;;;;;;6182579;23;20315;-77
2022/09/21 01:29:19;;;;;;;1.55;0.40;;;18.40;79.30;;;;;;6183717;23;19997;-79
2022/09/21 01:31:57;;;;;;;0.60;0.30;;;18.40;79.00;;;;;;6156217;23;20009;-78
2022/09/21 01:34:26;;;;;;;0.60;0.20;;;18.50;79.10;;;;;;6183451;23;20009;-78
2022/09/21 01:36:56;;;;;;;1.03;0.30;;;18.50;79.30;;;;;;6182793;23;20454;-79
2022/09/21 01:39:25;;;;;;;1.65;0.20;;;18.50;79.30;;;;;;6156900;23;20009;-81
2022/09/21 01:41:53;;;;;;;0.98;0.43;;;18.60;79.80;;;;;;6184023;23;20428;-81
2022/09/21 01:44:23;;;;;;;0.57;0.40;;;18.50;80.20;;;;;;6184224;23;20435;-83
2022/09/21 01:46:50;;;;;;;0.40;0.22;;;18.50;80.60;;;;;;6183791;23;19997;-81
2022/09/21 01:49:28;;;;;;;0.90;0.30;;;18.50;80.80;;;;;;6183456;23;20076;-80
2022/09/21 01:52:21;;;;;;;0.98;0.20;;;18.50;81.20;;;;;;6182562;23;20112;-80
2022/09/21 01:55:02;;;;;;;0.40;0.30;;;18.50;81.60;;;;;;6183040;23;20451;-80
2022/09/21 01:57:51;;;;;;;0.25;0.10;;;18.50;81.60;;;;;;6183558;23;20416;-79
2022/09/21 02:00:17;;;;;;;0.40;0.30;;;18.50;81.80;;;;;;6126685;23;20718;-80
2022/09/21 02:02:54;;;;;;;0.35;0.22;;;18.40;81.80;;;;;;6182039;23;20101;-78
2022/09/21 02:05:22;;;;;;;0.82;0.30;;;18.40;82.20;;;;;;6182729;23;20005;-78
2022/09/21 02:07:50;;;;;;;0.57;0.30;;;18.40;82.60;;;;;;6180577;23;20009;-77
2022/09/21 02:10:38;;;;;;;0.68;0.20;;;18.40;82.90;;;;;;6182795;23;20033;-80
2022/09/21 02:13:07;;;;;;;0.20;0.20;;;18.40;83.20;;;;;;6156621;23;20625;-79
2022/09/21 02:15:55;;;;;;;0.50;0.28;;;18.40;83.50;;;;;;6182315;23;20008;-79
2022/09/21 02:18:44;;;;;;;1.30;0.40;;;18.40;83.30;;;;;;6181863;23;20051;-79
2022/09/21 02:21:22;;;;;;;0.20;0.20;;;18.20;79.90;;;;;;6147439;23;20008;-80
2022/09/21 02:24:07;;;;;;;1.10;0.40;;;18.10;81.40;;;;;;6185262;23;20089;-80
2022/09/21 02:26:39;;;;;;;2.83;0.50;;;17.50;83.60;;;;;;6184131;23;20005;-79
2022/09/21 02:29:24;;;;;;;2.90;0.80;;;17.40;84.20;;;;;;6184617;23;20004;-79
2022/09/21 02:32:11;;;;;;;1.38;0.40;;;17.40;85.40;;;;;;6184437;23;20001;-79
2022/09/21 02:34:48;;;;;;;1.08;0.38;;;17.30;85.20;;;;;;6183819;23;20032;-79
2022/09/21 02:37:35;;;;;;;1.25;0.50;;;17.20;86.30;;;;;;6182706;23;20436;-79
2022/09/21 02:40:28;;;;;;;0.60;0.35;;;17.30;85.70;;;;;;6185012;23;20029;-80
2022/09/21 02:43:02;;;;;;;1.63;0.50;;;16.90;85.60;;;;;;6184948;23;20016;-79
2022/09/21 02:45:35;;;;;;;0.45;0.32;;;16.90;86.20;;;;;;6183440;23;20001;-78
2022/09/21 02:48:15;;;;;;;2.25;0.40;;;16.80;86.70;;;;;;6182908;23;20009;-78
2022/09/21 02:50:46;;;;;;;1.95;0.50;;;16.90;86.00;;;;;;6182929;23;20080;-78
2022/09/21 02:53:16;;;;;;;0.65;0.40;;;16.70;86.50;;;;;;6184432;23;20068;-78
2022/09/21 02:55:44;;;;;;;1.45;0.60;;;16.60;86.70;;;;;;6183346;23;20001;-79
2022/09/21 02:58:13;;;;;;;0.30;0.30;;;16.60;86.50;;;;;;6183875;23;19997;-80
2022/09/21 03:00:39;;;;;;;0.30;0.30;;;16.60;86.90;;;;;;6184398;23;20076;-79
2022/09/21 03:03:19;;;;;;;4.50;0.50;;;16.60;87.00;;;;;;6184784;23;20040;-80
2022/09/21 03:05:47;;;;;;;3.58;0.57;;;16.70;86.90;;;;;;6184049;23;20032;-80
2022/09/21 03:08:14;;;;;;;2.28;0.30;;;16.70;87.00;;;;;;6184112;23;20009;-80
2022/09/21 03:10:40;;;;;;;1.25;0.50;;;16.70;86.30;;;;;;6182948;23;20001;-80
2022/09/21 03:13:08;;;;;;;2.38;0.80;;;16.60;87.00;;;;;;6183935;23;20091;-80
2022/09/21 03:15:35;;;;;;;1.23;0.70;;;16.50;86.80;;;;;;6183869;23;20428;-79
2022/09/21 03:18:03;;;;;;;0.60;0.40;;;16.40;87.80;;;;;;6184857;23;19997;-78
2022/09/21 03:20:33;;;;;;;1.70;0.45;;;16.20;88.60;;;;;;6184123;23;20009;-78
2022/09/21 03:23:00;;;;;;;2.55;0.60;;;16.10;89.50;;;;;;6184596;23;20108;-82
2022/09/21 03:25:26;;;;;;;1.83;0.60;;;16.20;89.00;;;;;;6184835;23;20021;-81
2022/09/21 03:27:52;;;;;;;2.70;0.68;;;16.20;88.70;;;;;;6184892;23;20008;-82
2022/09/21 03:30:20;;;;;;;0.50;0.50;;;16.20;88.50;;;;;;6184233;23;20328;-81
2022/09/21 03:32:49;;;;;;;6.07;0.90;;;16.30;88.60;;;;;;6182361;23;20011;-81
2022/09/21 03:35:15;;;;;;;1.15;0.50;;;16.30;87.70;;;;;;6183027;23;20767;-82
2022/09/21 03:37:40;;;;;;;1.85;0.77;;;16.00;88.10;;;;;;6183837;23;20005;-81
2022/09/21 03:40:07;;;;;;;1.50;0.47;;;16.00;87.60;;;;;;6184201;23;20059;-81
2022/09/21 03:42:33;;;;;;;1.83;0.70;;;16.00;87.90;;;;;;6184329;23;20001;-82
2022/09/21 03:44:58;;;;;;;1.70;0.68;;;15.90;87.50;;;;;;6183331;23;20012;-82
2022/09/21 03:47:24;;;;;;;0.98;0.60;;;16.10;87.70;;;;;;6184623;23;20001;-82
2022/09/21 03:49:50;;;;;;;0.77;0.50;;;15.90;86.90;;;;;;6182594;23;20005;-82
2022/09/21 03:52:15;;;;;;;0.90;0.68;;;16.00;87.20;;;;;;6182475;23;20005;-81
2022/09/21 03:54:41;;;;;;;1.10;0.50;;;16.00;86.40;;;;;;6182400;23;20061;-81
2022/09/21 03:57:07;;;;;;;0.30;0.30;;;16.00;86.50;;;;;;6183541;23;20005;-81
2022/09/21 03:59:34;;;;;;;0.80;0.50;;;16.10;86.60;;;;;;6157222;23;20511;-80
2022/09/21 04:02:00;;;;;;;0.98;0.60;;;16.00;84.70;;;;;;6184558;23;20258;-82
2022/09/21 04:04:26;;;;;;;2.03;0.60;;;15.90;85.70;;;;;;6157667;23;20012;-82
2022/09/21 04:06:51;;;;;;;2.05;0.98;;;15.80;86.40;;;;;;6184355;23;20004;-82
2022/09/21 04:09:17;;;;;;;1.20;0.55;;;15.80;85.70;;;;;;6184213;23;20001;-82
2022/09/21 04:11:47;;;;;;;1.73;0.70;;;16.00;86.10;;;;;;6184327;23;20004;-83
2022/09/21 04:14:13;;;;;;;0.57;0.47;;;16.00;85.20;;;;;;6184048;23;20036;-82
2022/09/21 04:16:39;;;;;;;0.55;0.40;;;16.00;84.70;;;;;;6184569;23;20228;-83
2022/09/21 04:19:04;;;;;;;1.23;0.50;;;16.10;84.50;;;;;;6183519;23;20008;-83
2022/09/21 04:21:31;;;;;;;1.60;0.30;;;16.10;83.20;;;;;;6183547;23;20008;-84
2022/09/21 04:23:57;;;;;;;1.60;0.40;;;16.10;83.30;;;;;;6184778;23;20088;-82
2022/09/21 04:26:29;;;;;;;0.63;0.55;;;16.20;83.40;;;;;;6185435;23;20025;-84
2022/09/21 04:28:55;;;;;;;0.90;0.50;;;16.40;82.90;;;;;;6185128;23;20492;-85
2022/09/21 04:31:22;;;;;;;0.85;0.50;;;16.40;82.60;;;;;;6185134;23;20076;-84
2022/09/21 04:33:49;;;;;;;0.50;0.40;;;16.50;82.60;;;;;;6184390;23;20009;-84
2022/09/21 04:36:16;;;;;;;0.50;0.40;;;16.70;82.50;;;;;;6184137;23;20055;-84
2022/09/21 04:38:42;;;;;;;1.27;0.50;;;16.70;82.30;;;;;;6156933;23;20009;-83
2022/09/21 04:41:08;;;;;;;0.60;0.40;;;16.80;81.60;;;;;;6183634;23;20261;-85
2022/09/21 04:43:34;;;;;;;0.40;0.40;;;16.90;81.50;;;;;;6181373;23;20001;-79
2022/09/21 04:46:05;;;;;;;0.85;0.47;;;16.90;80.90;;;;;;6179796;23;20028;-77
2022/09/21 04:48:31;;;;;;;1.00;0.50;;;16.80;80.30;;;;;;6158231;23;20001;-77
2022/09/21 04:50:57;;;;;;;1.13;0.45;;;16.90;80.60;;;;;;6184527;23;20047;-77
2022/09/21 04:53:22;;;;;;;0.60;0.43;;;16.90;80.50;;;;;;6181694;23;20009;-78
2022/09/21 04:55:48;;;;;;;1.17;0.60;;;16.90;80.40;;;;;;6183465;23;20379;-77
2022/09/21 04:58:14;;;;;;;0.60;0.60;;;17.00;80.30;;;;;;6183791;23;20013;-79
2022/09/21 05:00:39;;;;;;;2.10;0.98;;;16.90;80.00;;;;;;6184398;23;20037;-80
2022/09/21 05:03:05;;;;;;;0.82;0.60;;;16.90;79.80;;;;;;6157020;23;20012;-79
2022/09/21 05:05:31;;;;;;;0.65;0.50;;;16.90;79.50;;;;;;6184673;23;20049;-86
2022/09/21 05:07:57;;;;;;;1.55;0.90;;;17.00;79.50;;;;;;6183238;23;20537;-79
2022/09/21 05:10:23;;;;;;;2.10;1.02;;;17.00;79.30;;;;;;6158484;23;20005;-78
2022/09/21 05:12:50;;;;;;;3.63;0.90;;;17.00;79.00;;;;;;6184000;23;20009;-78
2022/09/21 05:15:17;;;;;;;0.90;0.70;;;17.00;79.00;;;;;;6184441;23;20080;-77
2022/09/21 05:17:43;;;;;;;0.80;0.70;;;17.10;78.80;;;;;;6181065;23;20005;-78
2022/09/21 05:20:10;;;;;;;1.67;0.70;;;17.10;78.40;;;;;;6183457;23;20059;-78
2022/09/21 05:22:36;;;;;;;1.90;1.13;;;17.10;78.00;;;;;;6183574;23;20005;-78
2022/09/21 05:25:02;;;;;;;1.35;0.75;;;17.20;77.80;;;;;;6183611;23;20008;-79
2022/09/21 05:27:28;;;;;;;1.27;0.85;;;17.20;77.50;;;;;;6183701;23;19997;-78
2022/09/21 05:29:57;;;;;;;1.15;0.88;;;17.20;76.90;;;;;;6184709;23;19993;-81
2022/09/21 05:32:48;;;;;;;0.98;0.90;;;19.50;78.60;;;;;;6182210;23;20048;-78
2022/09/21 05:35:27;;;;;;;2.38;1.00;;;17.20;76.50;;;;;;6182021;23;20035;-78
2022/09/21 05:38:09;;;;;;;1.50;0.80;;;17.20;76.60;;;;;;6184159;23;20009;-83
2022/09/21 05:40:35;;;;;;;1.95;1.02;;;17.20;76.30;;;;;;6184084;23;20076;-83
2022/09/21 05:43:01;;;;;;;1.73;1.00;;;17.20;76.10;;;;;;6184927;23;20029;-84
2022/09/21 05:45:27;;;;;;;1.20;0.85;;;17.20;76.20;;;;;;6185976;23;20048;-83
2022/09/21 05:48:32;;;;;;;2.10;0.63;;;17.30;76.20;;;;;;6185993;23;20005;-83
2022/09/21 05:51:09;;;;;;;1.38;0.90;;;17.30;76.10;;;;;;6158009;23;20005;-83
2022/09/21 05:54:09;;;;;;;1.90;1.10;;;17.30;75.50;;;;;;6185722;23;20028;-77
2022/09/21 05:57:04;;;;;;;1.40;0.90;;;17.20;75.00;;;;;;6159271;23;20313;-81
2022/09/21 05:59:46;;;;;;;2.70;1.00;;;17.20;74.40;;;;;;6186948;23;20009;-83
2022/09/21 06:02:43;;;;;;;2.33;0.85;;;17.10;74.60;;;;;;6160471;23;20147;-81
2022/09/21 06:05:11;;;;;;;2.28;1.17;;;17.20;75.40;;;;;;6186654;23;20029;-77
2022/09/21 06:07:36;;;;;;;1.40;0.70;;;17.30;75.50;;;;;;6186035;23;20005;-77
2022/09/21 06:10:03;;;;;;;1.52;0.80;;;17.30;75.60;;;;;;6185637;23;20412;-77
2022/09/21 06:12:28;;;;;;;2.33;0.82;;;17.40;75.50;;;;;;6185945;23;20013;-76
2022/09/21 06:14:55;;;;;;;1.45;0.85;;;17.40;74.90;;;;;;6186341;23;20015;-77
2022/09/21 06:17:21;;;;;;;1.40;0.80;;;17.40;74.20;;;;;;6186241;23;20005;-76
2022/09/21 06:19:47;;;;;;;1.15;0.90;;;17.50;73.90;;;;;;6186195;23;20005;-77
2022/09/21 06:22:13;;;;;;;1.05;0.60;;;17.50;74.00;;;;;;6186453;23;20001;-77
2022/09/21 06:24:38;;;;;;;0.85;0.55;;;17.50;73.80;;;;;;6185609;23;20005;-77
2022/09/21 06:27:04;;;;;;;1.77;0.50;;;17.60;73.60;;;;;;6186135;23;20004;-77
2022/09/21 06:29:30;;;;;;;1.30;0.60;;;17.60;73.50;;;;;;6160261;23;20455;-76
2022/09/21 06:31:56;;;;;;;2.03;0.85;;;17.60;73.20;;;;;;6186618;23;19997;-77
2022/09/21 06:34:21;;;;;;;1.75;0.60;;;17.70;73.30;;;;;;6186304;23;20035;-77
2022/09/21 06:36:47;;;;;;;1.30;0.60;;;17.70;71.90;;;;;;6186407;23;20001;-77
2022/09/21 06:39:13;;;;;;;1.70;0.75;;;17.70;72.00;;;;;;6184872;23;20005;-77
2022/09/21 06:41:38;;;;;;;1.08;0.63;;;17.70;72.40;;;;;;6185929;23;20332;-76
2022/09/21 06:44:04;;;;;;;1.05;0.70;;;17.80;72.60;;;;;;6185998;23;20087;-77
2022/09/21 06:46:30;;;;;;;0.50;0.50;;;17.80;72.20;;;;;;6185928;23;20047;-77
2022/09/21 06:48:55;;;;;;;1.70;0.52;;;17.80;71.70;;;;;;6186102;23;20613;-77
2022/09/21 06:51:22;;;;;;;1.17;0.70;;;17.90;71.90;;;;;;6186958;23;20002;-76
2022/09/21 06:53:53;;;;;;;0.52;0.30;;;17.90;71.50;;;;;;6159379;23;20100;-77
2022/09/21 06:56:18;;;;;;;0.82;0.50;;;17.90;71.40;;;;;;6186158;23;20028;-77
2022/09/21 06:58:46;;;;;;;0.93;0.50;;;17.90;70.90;;;;;;6186304;23;20404;-77
2022/09/21 07:01:13;;;;;;;0.63;0.40;;;17.90;70.50;;;;;;6186156;23;20367;-77
2022/09/21 07:03:40;;;;;;;1.02;0.50;;;18.00;71.00;;;;;;6186257;23;20001;-77
2022/09/21 07:06:07;;;;;;;1.40;0.63;;;18.00;71.00;;;;;;6186414;23;20076;-77
2022/09/21 07:08:34;;;;;;;0.45;0.43;;;18.10;70.90;;;;;;6186304;23;20367;-78
2022/09/21 07:11:01;;;;;;;1.58;0.73;;;18.10;71.10;;;;;;6186243;23;20024;-75
2022/09/21 07:13:27;;;;;;;1.42;0.47;;;18.10;71.00;;;;;;6186123;23;20041;-77
2022/09/21 07:15:53;;;;;;;1.20;0.60;;;18.20;71.10;;;;;;6186255;23;20031;-77
2022/09/21 07:18:18;;;;;;;0.98;0.57;;;18.20;71.00;;;;;;6186181;23;20072;-77
2022/09/21 07:20:44;;;;;;;1.70;0.70;;;18.20;70.90;;;;;;6185981;23;20007;-76
2022/09/21 07:23:13;;;;;;;0.52;0.30;;;18.30;71.10;;;;;;6185962;23;20531;-76
2022/09/21 07:25:38;;;;;;;1.33;0.40;;;18.40;71.50;;;;;;6186128;23;20001;-76
2022/09/21 07:28:04;;;;;;;2.17;0.40;;;18.40;71.90;;;;;;6185920;23;20036;-77
2022/09/21 07:30:30;;;;;;;0.55;0.40;;;18.50;71.40;;;;;;6184125;23;20008;-76
2022/09/21 07:32:56;;;;;;;1.02;0.40;;;18.50;71.30;;;;;;6186056;23;20001;-80
2022/09/21 07:35:21;;;;;;;2.33;0.50;;;18.60;71.00;;;;;;6185398;23;20001;-77
2022/09/21 07:37:47;;;;;;;2.50;0.55;;;18.70;71.00;;;;;;6185328;23;20001;-77
2022/09/21 07:40:13;;;;;;;0.20;0.20;;;18.80;69.80;;;;;;6185337;23;20009;-76
2022/09/21 07:42:38;;;;;;;0.73;0.30;;;18.90;70.20;;;;;;6158550;23;20092;-77
2022/09/21 07:45:04;;;;;;;0.68;0.52;;;18.90;69.80;;;;;;6183866;23;20005;-76
2022/09/21 07:47:30;;;;;;;1.33;0.50;;;19.00;69.90;;;;;;6185171;23;20440;-76
2022/09/21 07:49:56;;;;;;;0.77;0.20;;;19.10;69.70;;;;;;6159774;23;20084;-75
2022/09/21 07:52:22;;;;;;;4.13;0.70;;;19.10;69.40;;;;;;6185666;23;20071;-80
2022/09/21 07:54:48;;;;;;;0.60;0.30;;;19.40;69.30;;;;;;6159412;23;20357;-79
2022/09/21 07:59:58;;;;;;;0.52;0.30;;;19.60;69.00;;;;;;6185932;23;20031;-82
2022/09/21 08:02:24;;;;;;;1.23;0.40;;;19.70;68.50;;;;;;6185612;23;20416;-81
2022/09/21 08:04:49;;;;;;;0.70;0.50;;;19.70;65.80;;;;;;6185886;23;20064;-81
2022/09/21 08:07:15;;;;;;;0.22;0.20;;;19.80;66.50;;;;;;6185613;23;20352;-81
2022/09/21 08:09:41;;;;;;;0.95;0.50;;;19.80;66.60;;;;;;6186013;23;20005;-83
2022/09/21 08:12:08;;;;;;;0.40;0.30;;;20.00;66.80;;;;;;6151081;23;20079;-81
2022/09/21 08:14:34;;;;;;;0.60;0.30;;;20.10;66.50;;;;;;6155898;23;20006;-81
2022/09/21 08:17:00;;;;;;;1.02;0.22;;;20.10;66.00;;;;;;6155520;23;20017;-81
2022/09/21 08:19:26;;;;;;;0.50;0.30;;;20.20;65.90;;;;;;6156249;23;20005;-81
2022/09/21 08:21:52;;;;;;;1.70;0.40;;;20.20;65.60;;;;;;6130046;23;20110;-82
2022/09/21 08:24:19;;;;;;;0.85;0.50;;;20.40;66.30;;;;;;6155764;23;20451;-81
2022/09/21 08:26:45;;;;;;;1.70;0.38;;;20.40;65.50;;;;;;6155837;23;19997;-81
2022/09/21 08:29:13;;;;;;;1.30;0.50;;;20.50;65.60;;;;;;6156117;23;20052;-81
2022/09/21 08:31:39;;;;;;;0.82;0.30;;;20.60;65.80;;;;;;6155758;23;20025;-81
2022/09/21 08:34:04;;;;;;;0.20;0.20;;;20.80;65.70;;;;;;6155517;23;20429;-81
2022/09/21 08:36:31;;;;;;;1.50;0.40;;;20.80;63.90;;;;;;6156030;23;20009;-82
2022/09/21 08:38:56;;;;;;;0.82;0.30;;;20.90;64.30;;;;;;6155705;23;20073;-81
2022/09/21 08:41:40;;;;;;;0.85;0.30;;;21.00;63.50;;;;;;6155381;23;20039;-81
2022/09/21 08:44:17;;;;;;;1.80;0.40;;;21.00;63.70;;;;;;6129177;23;20068;-81
2022/09/21 08:46:46;;;;;;;0.65;0.30;;;21.10;64.00;;;;;;6155561;23;20465;-81
2022/09/21 08:49:18;;;;;;;4.32;0.65;;;21.20;64.30;;;;;;6155496;23;19998;-82
2022/09/21 08:51:51;;;;;;;2.15;0.40;;;21.30;61.30;;;;;;6155489;23;20001;-82
2022/09/21 08:54:35;;;;;;;2.65;0.40;;;21.40;63.20;;;;;;6155351;23;20326;-82
2022/09/21 08:57:01;;;;;;;0.70;0.40;;;21.50;61.70;;;;;;6129283;23;20044;-81
2022/09/21 08:59:27;;;;;;;0.70;0.30;;;21.50;63.20;;;;;;6155746;23;20001;-81
2022/09/21 09:02:00;;;;;;;0.88;0.38;;;21.70;63.20;;;;;;6156021;23;20005;-82
2022/09/21 09:05:02;;;;;;;0.57;0.30;;;21.80;63.10;;;;;;6155112;23;20025;-83
2022/09/21 09:08:01;;;;;;;0.93;0.38;;;21.90;63.30;;;;;;6155482;23;20968;-82
2022/09/21 09:10:40;;;;;;;2.13;0.60;;;22.00;61.30;;;;;;6155661;23;20001;-83
2022/09/21 09:13:14;;;;;;;0.60;0.30;;;22.10;61.80;;;;;;6175754;23;20324;-82
2022/09/21 09:16:01;;;;;;;0.40;0.40;;;22.10;60.00;;;;;;6185124;23;20068;-82
2022/09/21 09:18:43;;;;;;;1.15;0.40;;;22.20;60.90;;;;;;6183094;23;20001;-81
2022/09/21 09:21:16;;;;;;;1.10;0.32;;;22.20;59.40;;;;;;6183810;23;20032;-82
2022/09/21 09:24:13;;;;;;;0.77;0.30;;;22.20;60.30;;;;;;6182975;23;20012;-81
2022/09/21 09:26:52;;;;;;;0.55;0.40;;;22.30;60.60;;;;;;6135264;23;20031;-82
2022/09/21 09:29:34;;;;;;;0.70;0.40;;;22.30;60.70;;;;;;6186257;23;20000;-82
2022/09/21 09:32:02;;;;;;;1.00;0.43;;;22.40;60.60;;;;;;6184696;23;20004;-82
2022/09/21 09:34:35;;;;;;;0.40;0.30;;;22.50;59.80;;;;;;6184593;23;20012;-82
2022/09/21 09:37:10;;;;;;;0.90;0.32;;;22.50;59.50;;;;;;6184576;23;20009;-82
2022/09/21 09:39:36;;;;;;;0.85;0.30;;;22.60;59.20;;;;;;6184767;23;20380;-82
2022/09/21 09:42:20;;;;;;;1.85;0.30;;;22.70;58.90;;;;;;6184797;23;20005;-81
2022/09/21 09:45:15;;;;;;;0.40;0.28;;;22.80;58.10;;;;;;6184401;23;20412;-82
2022/09/21 09:47:49;;;;;;;9.68;1.00;;;22.90;56.40;;;;;;6185047;23;20004;-82
2022/09/21 09:50:26;;;;;;;1.75;0.55;;;23.10;55.80;;;;;;6184593;23;20025;-82
2022/09/21 09:52:59;;;;;;;0.80;0.38;;;23.20;55.60;;;;;;6184055;23;19997;-82
2022/09/21 09:55:33;;;;;;;0.60;0.30;;;23.40;54.80;;;;;;6184562;23;20020;-82
2022/09/21 09:57:59;;;;;;;1.65;0.50;;;23.50;54.00;;;;;;6184634;23;20044;-82
2022/09/21 10:00:24;;;;;;;0.75;0.30;;;23.50;52.70;;;;;;6184624;23;20316;-82
2022/09/21 10:02:53;;;;;;;0.50;0.40;;;23.50;53.20;;;;;;6184938;23;20424;-82
2022/09/21 10:05:22;;;;;;;2.17;0.30;;;23.60;51.70;;;;;;6184819;23;20005;-81
2022/09/21 10:07:49;;;;;;;1.77;0.67;;;23.60;51.30;;;;;;6158611;23;20009;-82
2022/09/21 10:10:34;;;;;;;0.60;0.32;;;23.50;50.80;;;;;;6184969;23;20052;-81
2022/09/21 10:13:13;;;;;;;0.73;0.38;;;23.50;50.60;;;;;;6184663;23;20016;-81
2022/09/21 10:15:50;;;;;;;0.68;0.30;;;23.40;50.10;;;;;;6183119;23;20013;-81
2022/09/21 10:18:20;;;;;;;0.50;0.30;;;23.50;50.20;;;;;;6184778;23;20011;-81
2022/09/21 10:21:04;;;;;;;;;;;23.60;49.60;;;;;;6184803;23;19997;-82
2022/09/21 10:23:31;;;;;;;0.82;0.28;;;23.60;47.00;;;;;;6184271;23;19911;-81
2022/09/21 10:26:04;;;;;;;0.55;0.40;;;23.80;49.80;;;;;;6184617;23;19997;-81
2022/09/21 10:28:30;;;;;;;0.63;0.22;;;24.00;49.60;;;;;;6182812;23;20001;-81
2022/09/21 10:31:20;;;;;;;0.95;0.40;;;24.10;49.00;;;;;;6184651;23;20072;-81
2022/09/21 10:34:08;;;;;;;0.67;0.40;;;24.40;48.90;;;;;;6184731;23;20001;-82
2022/09/21 10:36:37;;;;;;;0.75;0.32;;;24.50;43.10;;;;;;6173521;23;20240;-82
2022/09/21 10:39:23;;;;;;;1.05;0.45;;;24.50;46.40;;;;;;6184514;23;20007;-82
2022/09/21 10:41:56;;;;;;;1.38;0.32;;;24.70;46.50;;;;;;6186192;23;20032;-81
2022/09/21 10:44:26;;;;;;;1.65;0.40;;;24.80;46.10;;;;;;6184113;23;20005;-81
2022/09/21 10:46:53;;;;;;;2.30;0.40;;;25.00;45.20;;;;;;6186001;23;20001;-81
2022/09/21 10:49:29;;;;;;;2.33;0.50;;;25.00;44.70;;;;;;6185670;23;20024;-81
2022/09/21 10:51:57;;;;;;;1.90;0.57;;;25.00;45.00;;;;;;6185909;23;19997;-81
2022/09/21 10:54:30;;;;;;;1.27;0.35;;;25.10;45.60;;;;;;6186571;23;20076;-81
2022/09/21 10:57:14;;;;;;;1.67;0.43;;;25.30;46.00;;;;;;6186480;23;20076;-81
2022/09/21 10:59:40;;;;;;;0.40;0.28;;;25.50;43.50;;;;;;6186685;23;20027;-81
2022/09/21 11:02:30;;;;;;;0.60;0.38;;;25.60;44.50;;;;;;6186550;23;20408;-81
2022/09/21 11:05:22;;;;;;;1.00;0.40;;;25.70;43.60;;;;;;6186357;23;20009;-81
2022/09/21 11:08:03;;;;;;;0.52;0.30;;;25.80;43.80;;;;;;6159530;23;20009;-81
2022/09/21 11:10:41;;;;;;;0.73;0.35;;;25.90;43.50;;;;;;6186161;23;20072;-81
2022/09/21 11:13:31;;;;;;;1.27;0.30;;;26.00;42.90;;;;;;6186643;23;20012;-81
2022/09/21 11:16:23;;;;;;;1.33;0.50;;;26.20;42.30;;;;;;6186107;23;20004;-82
2022/09/21 11:19:25;;;;;;;0.20;0.20;;;26.30;43.50;;;;;;6183785;23;20005;-81
2022/09/21 11:22:07;;;;;;;0.50;0.40;;;26.40;42.20;;;;;;6186226;23;20001;-81
2022/09/21 11:24:48;;;;;;;0.45;0.30;;;26.50;42.20;;;;;;6185648;23;20009;-81
2022/09/21 11:27:40;;;;;;;2.00;0.57;;;26.50;42.80;;;;;;6186303;23;20055;-80
2022/09/21 11:30:09;;;;;;;3.65;0.50;;;26.60;42.70;;;;;;6185574;23;20005;-81
2022/09/21 11:32:42;;;;;;;0.40;0.30;;;26.70;42.60;;;;;;6185856;23;20012;-82
2022/09/21 11:35:29;;;;;;;0.70;0.50;;;26.70;41.50;;;;;;6185916;23;20426;-82
2022/09/21 11:38:48;;;;;;;1.10;0.60;;;26.90;42.40;;;;;;6186276;23;20088;-81
2022/09/21 11:41:37;;;;;;;1.37;0.40;;;27.00;40.40;;;;;;6185474;23;20016;-82
2022/09/21 11:44:18;;;;;;;0.90;0.52;;;27.10;42.00;;;;;;6177790;23;20005;-82
2022/09/21 11:46:59;;;;;;;0.65;0.30;;;27.20;40.40;;;;;;6186181;23;20001;-82
2022/09/21 11:49:44;;;;;;;0.93;0.32;;;27.20;40.50;;;;;;6186232;23;20058;-82
2022/09/21 11:52:12;;;;;;;0.50;0.35;;;27.30;40.20;;;;;;6186152;23;19997;-83
2022/09/21 11:54:50;;;;;;;1.10;0.60;;;27.50;40.00;;;;;;6185891;23;20001;-83
2022/09/21 11:57:29;;;;;;;0.65;0.38;;;27.40;39.20;;;;;;6184682;23;20005;-82
2022/09/21 12:00:26;;;;;;;1.08;0.40;;;27.60;39.90;;;;;;6159960;23;20499;-82
2022/09/21 12:02:58;;;;;;;0.68;0.43;;;27.90;38.60;;;;;;6173889;23;20016;-83
2022/09/21 12:05:49;;;;;;;0.43;0.30;;;28.00;39.40;;;;;;6186137;23;20084;-83
2022/09/21 12:08:52;;;;;;;1.95;0.52;;;28.10;38.90;;;;;;6186445;23;20005;-82
2022/09/21 12:11:28;;;;;;;1.40;0.50;;;28.20;38.80;;;;;;6185958;23;20443;-83
2022/09/21 12:14:12;;;;;;;1.08;0.35;;;28.40;38.80;;;;;;6185727;23;20020;-83
2022/09/21 12:16:51;;;;;;;3.78;0.65;;;28.40;39.20;;;;;;6185947;23;20005;-83
2022/09/21 12:19:40;;;;;;;0.30;0.20;;;28.40;39.10;;;;;;6185990;23;20005;-83
2022/09/21 12:22:33;;;;;;;0.20;0.20;;;28.40;36.10;;;;;;6185191;23;20005;-83
2022/09/21 12:25:11;;;;;;;0.95;0.40;;;28.50;37.30;;;;;;6185011;23;20075;-83
2022/09/21 12:27:41;;;;;;;0.30;0.30;;;28.60;37.50;;;;;;6185471;23;20001;-83
2022/09/21 12:30:19;;;;;;;0.40;0.30;;;28.70;36.30;;;;;;6185338;23;20005;-83
2022/09/21 12:32:52;;;;;;;1.75;0.40;;;28.80;36.60;;;;;;6185251;23;19997;-83
2022/09/21 12:35:45;;;;;;;0.43;0.32;;;28.90;36.00;;;;;;6185678;23;20432;-83
2022/09/21 12:38:26;;;;;;;0.70;0.40;;;29.00;35.30;;;;;;6159147;23;20013;-82
2022/09/21 12:41:08;;;;;;;0.98;0.38;;;29.00;35.60;;;;;;6185272;23;20008;-83
2022/09/21 12:43:40;;;;;;;0.80;0.28;;;28.80;34.40;;;;;;6185408;23;20005;-83
2022/09/21 12:46:25;;;;;;;0.85;0.28;;;28.50;35.30;;;;;;6185319;23;20327;-83
2022/09/21 12:48:51;;;;;;;0.65;0.30;;;28.60;35.20;;;;;;6183442;23;20092;-83
2022/09/21 12:51:24;;;;;;;0.20;0.20;;;28.50;34.50;;;;;;6185037;23;19997;-82
2022/09/21 12:53:53;;;;;;;0.38;0.20;;;28.50;34.40;;;;;;6185056;23;20001;-83
2022/09/21 12:56:42;;;;;;;1.80;0.30;;;28.50;35.30;;;;;;6184611;23;20005;-82
2022/09/21 12:59:33;;;;;;;0.98;0.40;;;28.40;35.40;;;;;;6184453;23;20009;-84
2022/09/21 13:02:32;;;;;;;0.30;0.30;;;28.30;36.00;;;;;;6181917;23;20029;-82
2022/09/21 13:05:16;;;;;;;0.40;0.28;;;28.00;35.80;;;;;;6184491;23;20254;-83
2022/09/21 13:07:57;;;;;;;0.95;0.35;;;27.70;36.50;;;;;;6184985;23;20007;-78
2022/09/21 13:10:30;;;;;;;2.17;0.32;;;27.30;35.60;;;;;;6185166;23;20001;-82
2022/09/21 13:13:01;;;;;;;0.28;0.20;;;27.00;36.20;;;;;;6184030;23;20017;-82
2022/09/21 13:15:30;;;;;;;0.60;0.20;;;26.60;36.10;;;;;;6184352;23;20113;-82
2022/09/21 13:18:04;;;;;;;0.33;0.20;;;26.30;36.00;;;;;;6184739;23;20005;-76
2022/09/21 13:20:38;;;;;;;0.30;0.30;;;25.90;35.90;;;;;;6184920;23;20001;-77